Time;durP1;ratioP1;P1;durP2;ratioP2;P2;SDS_P1;SDS_P2;PMS_P1;PMS_P2;Temp;Humidity;BMP_temperature;BMP_pressure;BME280_temperature;BME280_humidity;BME280_pressure;Samples;Min_cycle;Max_cycle;Signal;HPM_P1;HPM_P2
2022/09/17 00:00:22;;;;;;;46.17;27.35;;;16.30;99.90;;;;;;5093202;28;20031;-86
2022/09/17 00:02:54;;;;;;;38.20;26.05;;;16.30;99.90;;;;;;5094048;28;20032;-85
2022/09/17 00:05:22;;;;;;;44.05;26.63;;;16.30;99.90;;;;;;5089340;28;20114;-85
2022/09/17 00:07:48;;;;;;;44.63;26.35;;;16.30;99.90;;;;;;5095689;28;20027;-86
2022/09/17 00:10:14;;;;;;;40.78;25.40;;;16.30;99.90;;;;;;5094039;28;20062;-86
2022/09/17 00:12:40;;;;;;;40.40;24.90;;;16.30;99.90;;;;;;5095313;28;20141;-86
2022/09/17 00:15:06;;;;;;;39.08;23.38;;;16.30;99.90;;;;;;5094046;28;20035;-87
2022/09/17 00:17:32;;;;;;;38.38;22.95;;;16.30;99.90;;;;;;5093655;28;20401;-85
2022/09/17 00:19:58;;;;;;;37.90;20.98;;;16.40;99.90;;;;;;5095606;28;20209;-85
2022/09/17 00:22:24;;;;;;;30.40;20.17;;;16.30;99.90;;;;;;5093910;28;20047;-86
2022/09/17 00:24:49;;;;;;;33.50;18.73;;;16.20;99.90;;;;;;5093458;28;20036;-85
2022/09/17 00:27:15;;;;;;;39.35;20.95;;;16.10;99.90;;;;;;5094983;28;20486;-84
2022/09/17 00:29:41;;;;;;;33.53;21.75;;;16.10;99.90;;;;;;5095134;28;20142;-86
2022/09/17 00:32:08;;;;;;;38.78;22.00;;;16.00;99.90;;;;;;5093418;28;20028;-85
2022/09/17 00:34:34;;;;;;;37.88;19.60;;;15.90;99.90;;;;;;5094990;28;20027;-84
2022/09/17 00:37:00;;;;;;;38.88;21.63;;;15.80;99.90;;;;;;5093540;28;20028;-87
2022/09/17 00:39:25;;;;;;;35.30;21.88;;;15.80;99.90;;;;;;5093324;28;20054;-85
2022/09/17 00:41:51;;;;;;;34.70;20.27;;;15.70;99.90;;;;;;5094787;28;20028;-84
2022/09/17 00:44:41;;;;;;;42.38;26.63;;;15.70;99.90;;;;;;5093095;28;20043;-84
2022/09/17 00:47:17;;;;;;;36.42;20.90;;;15.60;99.90;;;;;;5093081;28;20405;-84
2022/09/17 00:49:44;;;;;;;35.97;21.25;;;15.50;99.90;;;;;;5087500;28;20479;-84
2022/09/17 00:52:17;;;;;;;37.03;21.48;;;15.40;99.90;;;;;;5094131;28;20390;-87
2022/09/17 00:54:50;;;;;;;34.08;20.95;;;15.40;99.90;;;;;;5094248;28;20479;-85
2022/09/17 00:57:16;;;;;;;33.50;21.35;;;15.40;99.90;;;;;;5093321;28;20429;-84
2022/09/17 00:59:42;;;;;;;33.50;21.48;;;15.50;99.90;;;;;;5094384;28;20020;-86
2022/09/17 01:02:08;;;;;;;33.80;20.92;;;15.50;99.90;;;;;;5094489;28;20123;-85
2022/09/17 01:04:33;;;;;;;34.15;21.00;;;15.60;99.90;;;;;;5092998;28;20038;-85
2022/09/17 01:07:12;;;;;;;31.92;20.40;;;15.60;99.90;;;;;;5093762;28;20036;-85
2022/09/17 01:09:44;;;;;;;34.20;20.98;;;15.60;99.90;;;;;;5092953;28;20070;-85
2022/09/17 01:12:41;;;;;;;30.75;22.05;;;15.70;99.90;;;;;;5093790;28;20032;-86
2022/09/17 01:15:19;;;;;;;27.17;18.77;;;15.70;99.90;;;;;;5094136;28;20042;-85
2022/09/17 01:18:03;;;;;;;26.08;18.27;;;15.60;99.90;;;;;;5092675;28;20027;-85
2022/09/17 01:21:03;;;;;;;23.58;14.85;;;15.50;99.90;;;;;;5092734;28;20047;-84
2022/09/17 01:23:41;;;;;;;24.38;17.38;;;15.30;99.90;;;;;;5093903;28;20370;-86
2022/09/17 01:26:25;;;;;;;20.25;12.48;;;15.40;99.90;;;;;;5092603;28;20478;-86
2022/09/17 01:29:17;;;;;;;13.25;8.68;;;15.30;99.90;;;;;;5092789;28;20383;-85
2022/09/17 01:31:55;;;;;;;;;;;15.10;99.90;;;;;;5094041;28;20463;-86
2022/09/17 01:34:46;;;;;;;11.05;6.30;;;15.20;99.90;;;;;;5106604;28;19988;-85
2022/09/17 01:37:29;;;;;;;7.82;5.35;;;15.00;99.90;;;;;;5108828;28;20028;-84
2022/09/17 01:40:06;;;;;;;7.95;6.25;;;15.00;99.90;;;;;;5108874;28;20051;-83
2022/09/17 01:42:50;;;;;;;11.63;7.53;;;15.00;99.90;;;;;;5107476;28;20044;-85
2022/09/17 01:45:35;;;;;;;10.45;6.97;;;14.90;99.90;;;;;;5093420;28;20074;-84
2022/09/17 01:48:16;;;;;;;11.75;6.15;;;14.80;99.90;;;;;;5087648;28;20069;-83
2022/09/17 01:50:51;;;;;;;11.18;5.82;;;14.80;99.90;;;;;;5093692;28;20020;-84
2022/09/17 01:53:22;;;;;;;5.80;4.30;;;14.80;99.90;;;;;;5101811;28;20036;-84
2022/09/17 01:55:52;;;;;;;6.43;4.23;;;14.60;99.90;;;;;;5092351;28;20466;-85
2022/09/17 01:58:26;;;;;;;4.70;4.05;;;14.50;99.90;;;;;;5092866;28;20307;-86
2022/09/17 02:00:58;;;;;;;7.43;4.65;;;14.40;99.90;;;;;;5092280;28;20115;-84
2022/09/17 02:03:29;;;;;;;;;;;14.40;99.90;;;;;;5092360;28;20028;-89
2022/09/17 02:05:54;;;;;;;6.05;4.43;;;14.30;99.90;;;;;;5092100;28;20301;-83
2022/09/17 02:08:24;;;;;;;5.80;4.68;;;14.20;99.90;;;;;;5093227;28;20477;-83
2022/09/17 02:11:10;;;;;;;6.97;4.57;;;14.20;99.90;;;;;;5093503;28;20024;-82
2022/09/17 02:14:00;;;;;;;9.82;5.18;;;14.20;99.90;;;;;;5093601;28;20028;-84
2022/09/17 02:16:33;;;;;;;13.52;7.18;;;14.20;99.90;;;;;;5095637;28;20389;-83
2022/09/17 02:19:27;;;;;;;20.40;7.07;;;14.20;99.90;;;;;;5100598;28;20024;-84
2022/09/17 02:22:15;;;;;;;12.30;6.93;;;14.20;99.90;;;;;;5094252;28;20077;-82
2022/09/17 02:24:40;;;;;;;15.93;7.57;;;14.10;99.90;;;;;;5096806;28;20050;-82
2022/09/17 02:27:13;;;;;;;11.55;6.72;;;14.10;99.90;;;;;;5098343;28;20391;-83
2022/09/17 02:29:42;;;;;;;14.82;7.68;;;14.10;99.90;;;;;;5096323;28;20466;-82
2022/09/17 02:32:08;;;;;;;14.95;8.18;;;14.20;99.90;;;;;;5097504;28;20024;-83
2022/09/17 02:34:35;;;;;;;15.55;7.88;;;14.30;99.90;;;;;;5097290;28;20028;-84
2022/09/17 02:37:02;;;;;;;13.27;7.22;;;14.20;99.90;;;;;;5097185;28;20486;-84
2022/09/17 02:39:28;;;;;;;11.18;7.30;;;14.20;99.90;;;;;;5096783;28;20470;-84
2022/09/17 02:42:09;;;;;;;10.27;6.22;;;14.20;99.90;;;;;;5097296;28;20032;-82
2022/09/17 02:45:06;;;;;;;12.90;5.93;;;14.10;99.90;;;;;;5097036;28;20540;-84
2022/09/17 02:47:55;;;;;;;13.13;6.65;;;14.10;99.90;;;;;;5092248;28;20028;-84
2022/09/17 02:50:53;;;;;;;8.02;6.30;;;14.10;99.90;;;;;;5105861;28;20406;-83
2022/09/17 02:53:41;;;;;;;8.60;5.50;;;14.10;99.90;;;;;;5090450;28;20051;-84
2022/09/17 02:56:27;;;;;;;9.07;6.22;;;14.10;99.90;;;;;;5096958;28;20470;-84
2022/09/17 02:59:32;;;;;;;9.85;5.13;;;14.20;99.90;;;;;;5111682;28;20020;-84
2022/09/17 03:02:08;;;;;;;7.63;5.22;;;14.20;99.90;;;;;;5053938;28;20039;-83
2022/09/17 03:04:36;;;;;;;10.05;5.45;;;14.20;99.90;;;;;;5053901;28;20065;-84
2022/09/17 03:07:10;;;;;;;5.70;4.07;;;14.20;99.90;;;;;;5037463;28;20044;-83
2022/09/17 03:09:37;;;;;;;7.13;4.50;;;14.10;99.90;;;;;;5054299;28;20029;-84
2022/09/17 03:12:03;;;;;;;7.32;4.13;;;14.10;99.90;;;;;;5053466;28;20492;-84
2022/09/17 03:14:29;;;;;;;6.72;3.50;;;14.00;99.90;;;;;;5053347;28;20055;-83
2022/09/17 03:16:55;;;;;;;9.18;4.07;;;14.00;99.90;;;;;;5054076;28;20037;-84
2022/09/17 03:19:21;;;;;;;8.10;3.45;;;13.90;99.90;;;;;;5046560;28;20042;-84
2022/09/17 03:21:47;;;;;;;5.78;3.20;;;14.00;99.90;;;;;;5036829;28;20056;-84
2022/09/17 03:24:12;;;;;;;5.88;2.97;;;13.90;99.90;;;;;;5053682;28;20040;-84
2022/09/17 03:26:38;;;;;;;5.60;3.17;;;13.90;99.90;;;;;;5036368;28;20480;-83
2022/09/17 03:29:04;;;;;;;4.95;3.15;;;13.90;99.90;;;;;;5036353;28;20190;-84
2022/09/17 03:31:30;;;;;;;4.32;3.20;;;14.00;99.90;;;;;;5053621;28;20535;-84
2022/09/17 03:33:57;;;;;;;5.47;3.13;;;14.00;99.90;;;;;;5036576;28;20427;-86
2022/09/17 03:36:23;;;;;;;6.28;2.60;;;14.00;99.90;;;;;;5053427;28;20373;-85
2022/09/17 03:38:54;;;;;;;6.50;3.38;;;13.90;99.90;;;;;;5066579;28;20036;-84
2022/09/17 03:41:20;;;;;;;4.68;3.17;;;14.00;99.90;;;;;;5103069;28;20490;-82
2022/09/17 03:43:46;;;;;;;4.75;3.38;;;13.90;99.90;;;;;;5095165;28;20035;-84
2022/09/17 03:46:11;;;;;;;4.15;2.70;;;13.90;99.90;;;;;;5094398;28;20493;-84
2022/09/17 03:48:38;;;;;;;5.18;2.97;;;13.90;99.90;;;;;;5096108;28;20477;-85
2022/09/17 03:51:05;;;;;;;4.75;3.15;;;13.90;99.90;;;;;;5094389;28;20024;-83
2022/09/17 03:53:32;;;;;;;7.00;3.50;;;13.90;99.90;;;;;;5095309;28;20034;-84
2022/09/17 03:56:03;;;;;;;4.95;3.35;;;13.90;99.90;;;;;;5095307;28;20077;-83
2022/09/17 03:58:29;;;;;;;5.95;3.30;;;13.90;99.90;;;;;;5095518;28;20108;-84
2022/09/17 04:00:56;;;;;;;6.20;3.53;;;13.90;99.90;;;;;;5094757;28;20063;-83
2022/09/17 04:03:26;;;;;;;8.40;3.53;;;14.00;99.90;;;;;;5095659;28;20530;-83
2022/09/17 04:05:53;;;;;;;9.82;3.55;;;14.00;99.90;;;;;;5095223;28;20028;-82
2022/09/17 04:08:19;;;;;;;6.03;3.25;;;13.90;99.90;;;;;;5095213;28;20472;-84
2022/09/17 04:10:45;;;;;;;7.40;4.22;;;13.90;99.90;;;;;;5095608;28;20058;-83
2022/09/17 04:13:12;;;;;;;7.38;3.70;;;13.90;99.90;;;;;;5093850;28;20040;-86
2022/09/17 04:15:38;;;;;;;8.40;3.85;;;13.80;99.90;;;;;;5094945;28;20024;-86
2022/09/17 04:18:04;;;;;;;6.10;3.83;;;13.90;99.90;;;;;;5095275;28;20036;-84
2022/09/17 04:20:30;;;;;;;9.00;4.20;;;13.90;99.90;;;;;;5095309;28;20028;-86
2022/09/17 04:22:56;;;;;;;7.30;4.18;;;13.80;99.90;;;;;;5093532;28;20044;-85
2022/09/17 04:25:22;;;;;;;7.97;4.90;;;13.80;99.90;;;;;;5094513;28;20032;-84
2022/09/17 04:27:48;;;;;;;6.25;4.45;;;13.90;99.90;;;;;;5090950;28;20025;-85
2022/09/17 04:30:15;;;;;;;8.65;4.50;;;13.90;99.90;;;;;;5090737;28;20116;-85
2022/09/17 04:32:43;;;;;;;8.80;4.13;;;13.90;99.90;;;;;;5092366;28;20089;-87
2022/09/17 04:35:09;;;;;;;5.55;4.20;;;13.80;99.90;;;;;;5094662;28;20063;-85
2022/09/17 04:37:35;;;;;;;10.20;5.10;;;13.80;99.90;;;;;;5110373;28;20028;-85
2022/09/17 04:40:02;;;;;;;7.03;4.93;;;13.90;99.90;;;;;;5094516;28;20040;-84
2022/09/17 04:42:28;;;;;;;8.23;4.70;;;13.90;99.90;;;;;;5094919;28;20101;-85
2022/09/17 04:44:54;;;;;;;6.07;4.18;;;13.90;99.90;;;;;;5093981;28;20481;-85
2022/09/17 04:47:19;;;;;;;11.15;5.82;;;13.90;99.90;;;;;;5094427;28;20028;-83
2022/09/17 04:49:45;;;;;;;10.43;7.00;;;13.80;99.90;;;;;;5092922;28;20020;-84
2022/09/17 04:52:11;;;;;;;7.82;4.85;;;13.90;99.90;;;;;;5093478;28;20115;-84
2022/09/17 04:54:37;;;;;;;9.05;4.55;;;13.90;99.90;;;;;;5104382;28;20025;-83
2022/09/17 04:57:02;;;;;;;6.18;3.85;;;13.90;99.90;;;;;;5093079;28;20022;-83
2022/09/17 04:59:28;;;;;;;7.47;4.53;;;13.80;99.90;;;;;;5094448;28;20039;-85
2022/09/17 05:01:54;;;;;;;7.88;4.68;;;13.80;99.90;;;;;;5094535;28;20027;-83
2022/09/17 05:04:20;;;;;;;9.93;4.60;;;13.70;99.90;;;;;;5094177;28;20063;-83
2022/09/17 05:06:46;;;;;;;9.52;4.72;;;13.70;99.90;;;;;;5094404;28;20490;-83
2022/09/17 05:09:11;;;;;;;8.82;5.03;;;13.70;99.90;;;;;;5094704;28;20032;-82
2022/09/17 05:11:37;;;;;;;7.63;4.38;;;13.70;99.90;;;;;;5093631;28;20076;-81
2022/09/17 05:14:03;;;;;;;6.53;4.90;;;13.70;99.90;;;;;;5092528;28;20368;-83
2022/09/17 05:16:29;;;;;;;5.90;4.32;;;13.70;99.90;;;;;;5093954;28;20020;-83
2022/09/17 05:18:56;;;;;;;6.50;4.05;;;13.70;99.90;;;;;;5109113;28;20081;-82
2022/09/17 05:21:22;;;;;;;7.82;4.28;;;13.60;99.90;;;;;;5094393;28;20028;-82
2022/09/17 05:23:48;;;;;;;8.35;5.10;;;13.60;99.90;;;;;;5094523;28;20056;-82
2022/09/17 05:26:14;;;;;;;10.60;5.60;;;13.60;99.90;;;;;;5093660;28;20036;-84
2022/09/17 05:28:41;;;;;;;10.38;5.70;;;13.60;99.90;;;;;;5093424;28;20028;-83
2022/09/17 05:31:07;;;;;;;10.02;6.60;;;13.60;99.90;;;;;;5094171;28;20433;-81
2022/09/17 05:33:33;;;;;;;13.02;7.07;;;13.60;99.90;;;;;;5092549;28;20027;-82
2022/09/17 05:35:59;;;;;;;13.30;8.18;;;13.60;99.90;;;;;;5092827;28;20375;-82
2022/09/17 05:38:25;;;;;;;14.85;9.00;;;13.70;99.90;;;;;;5087408;28;20032;-80
2022/09/17 05:40:51;;;;;;;13.15;8.45;;;13.80;99.90;;;;;;5091965;28;20530;-81
2022/09/17 05:43:17;;;;;;;12.38;8.98;;;13.80;99.90;;;;;;5093770;28;20036;-81
2022/09/17 05:45:43;;;;;;;11.73;8.13;;;13.80;99.90;;;;;;5086325;28;20429;-81
2022/09/17 05:48:12;;;;;;;14.32;8.32;;;13.80;99.90;;;;;;5109069;28;20020;-81
2022/09/17 05:50:39;;;;;;;29.23;13.63;;;13.80;99.90;;;;;;5093655;28;20082;-80
2022/09/17 05:53:08;;;;;;;54.53;17.77;;;13.70;99.90;;;;;;5093132;28;20363;-82
2022/09/17 05:55:34;;;;;;;36.22;14.75;;;13.80;99.90;;;;;;5093099;28;20103;-81
2022/09/17 05:58:00;;;;;;;17.25;9.75;;;13.70;99.90;;;;;;5092651;28;20054;-82
2022/09/17 06:00:26;;;;;;;19.10;9.27;;;13.70;99.90;;;;;;5092989;28;20039;-82
2022/09/17 06:02:58;;;;;;;14.30;9.13;;;13.70;99.90;;;;;;5092028;28;20034;-83
2022/09/17 06:05:24;;;;;;;23.05;13.20;;;13.70;99.90;;;;;;5093227;28;20050;-83
2022/09/17 06:07:50;;;;;;;22.90;12.90;;;13.70;99.90;;;;;;5092754;28;20028;-82
2022/09/17 06:10:16;;;;;;;48.70;20.17;;;13.70;99.90;;;;;;5092034;28;20077;-82
2022/09/17 06:12:42;;;;;;;64.78;21.60;;;13.70;99.90;;;;;;5091945;28;20468;-83
2022/09/17 06:15:08;;;;;;;27.60;15.07;;;13.70;99.90;;;;;;5093016;28;20463;-82
2022/09/17 06:17:35;;;;;;;22.15;12.02;;;13.80;99.90;;;;;;5093903;28;20032;-81
2022/09/17 06:20:02;;;;;;;12.88;8.90;;;13.80;99.90;;;;;;5093269;28;20733;-82
2022/09/17 06:22:28;;;;;;;33.22;14.75;;;13.80;99.90;;;;;;5093491;28;20024;-82
2022/09/17 06:24:54;;;;;;;15.32;8.73;;;13.80;99.90;;;;;;5092653;28;20074;-83
2022/09/17 06:27:20;;;;;;;24.02;11.82;;;13.70;99.90;;;;;;5093051;28;20496;-82
2022/09/17 06:29:45;;;;;;;21.75;11.13;;;13.70;99.90;;;;;;5091154;28;20103;-81
2022/09/17 06:32:14;;;;;;;19.35;10.30;;;13.70;99.90;;;;;;5092943;28;20051;-82
2022/09/17 06:34:40;;;;;;;9.93;7.22;;;13.70;99.90;;;;;;5092780;28;20028;-81
2022/09/17 06:37:06;;;;;;;23.98;12.43;;;13.80;99.90;;;;;;5094618;28;20078;-81
2022/09/17 06:39:33;;;;;;;16.77;10.50;;;13.80;99.90;;;;;;5071677;28;20039;-82
2022/09/17 06:41:58;;;;;;;18.30;10.30;;;13.80;99.90;;;;;;5072034;28;20505;-82
2022/09/17 06:44:24;;;;;;;12.88;8.52;;;13.80;99.90;;;;;;5073133;28;20028;-82
2022/09/17 06:46:50;;;;;;;11.80;7.47;;;13.80;99.90;;;;;;5072340;28;20075;-82
2022/09/17 06:49:17;;;;;;;12.40;8.05;;;13.80;99.90;;;;;;5072985;28;20025;-81
2022/09/17 06:51:43;;;;;;;9.30;6.50;;;13.90;99.90;;;;;;5088848;28;20467;-83
2022/09/17 06:54:09;;;;;;;9.80;5.40;;;13.90;99.90;;;;;;5073416;28;20024;-82
2022/09/17 06:56:35;;;;;;;10.95;7.57;;;13.80;99.90;;;;;;5072875;28;20483;-84
2022/09/17 06:59:01;;;;;;;13.98;7.40;;;13.90;99.90;;;;;;5073238;28;20032;-84
2022/09/17 07:01:27;;;;;;;14.30;8.65;;;13.90;99.90;;;;;;5072108;28;20020;-82
2022/09/17 07:03:53;;;;;;;15.48;9.63;;;13.90;99.90;;;;;;5071731;28;20024;-81
2022/09/17 07:06:19;;;;;;;12.15;6.75;;;13.90;99.90;;;;;;5073453;28;20051;-83
2022/09/17 07:08:46;;;;;;;12.68;7.40;;;14.00;99.90;;;;;;5075110;28;20020;-83
2022/09/17 07:11:12;;;;;;;10.43;8.20;;;14.00;99.90;;;;;;5076722;28;20017;-82
2022/09/17 07:13:38;;;;;;;11.73;7.95;;;14.10;99.90;;;;;;5077080;28;20513;-82
2022/09/17 07:16:05;;;;;;;14.00;8.20;;;14.10;99.90;;;;;;5076634;28;20064;-81
2022/09/17 07:18:31;;;;;;;17.73;11.55;;;14.10;99.90;;;;;;5092488;28;20032;-81
2022/09/17 07:21:00;;;;;;;14.15;9.80;;;14.20;99.90;;;;;;5075352;28;20035;-83
2022/09/17 07:23:28;;;;;;;14.15;9.73;;;14.20;99.90;;;;;;5076514;28;20029;-82
2022/09/17 07:25:55;;;;;;;14.70;9.32;;;14.20;99.90;;;;;;5076648;28;20111;-81
2022/09/17 07:28:22;;;;;;;30.13;15.20;;;14.20;99.90;;;;;;5076068;28;20442;-83
2022/09/17 07:30:49;;;;;;;26.20;14.73;;;14.20;99.90;;;;;;5075110;28;20059;-83
2022/09/17 07:33:15;;;;;;;19.02;11.80;;;14.20;99.90;;;;;;5075283;28;20074;-83
2022/09/17 07:35:41;;;;;;;23.80;13.18;;;14.20;99.90;;;;;;5075153;28;20119;-83
2022/09/17 07:38:07;;;;;;;18.98;11.68;;;14.30;99.90;;;;;;5076525;28;20099;-83
2022/09/17 07:40:33;;;;;;;17.10;11.07;;;14.30;99.90;;;;;;5076277;28;20071;-81
2022/09/17 07:42:59;;;;;;;15.30;9.35;;;14.40;99.90;;;;;;5075017;28;20079;-83
2022/09/17 07:45:24;;;;;;;16.20;10.63;;;14.40;99.90;;;;;;5076137;28;20025;-82
2022/09/17 07:47:50;;;;;;;16.88;11.80;;;14.50;99.90;;;;;;5076468;28;20128;-82
2022/09/17 07:50:16;;;;;;;16.70;11.13;;;14.50;99.90;;;;;;5076508;28;20020;-81
2022/09/17 07:52:48;;;;;;;19.52;10.90;;;14.50;99.90;;;;;;5074760;28;20020;-83
2022/09/17 07:55:14;;;;;;;21.08;12.00;;;14.50;99.90;;;;;;5076200;28;20025;-82
2022/09/17 07:57:40;;;;;;;16.23;11.10;;;14.50;99.90;;;;;;5076173;28;20035;-83
2022/09/17 08:00:07;;;;;;;16.58;10.45;;;14.60;99.90;;;;;;5074581;28;20024;-81
2022/09/17 08:02:32;;;;;;;16.60;13.00;;;14.60;99.90;;;;;;5074604;28;20025;-84
2022/09/17 08:04:58;;;;;;;14.35;10.65;;;14.70;99.90;;;;;;5075460;28;20029;-81
2022/09/17 08:07:24;;;;;;;20.98;13.38;;;14.70;99.90;;;;;;5075709;28;20364;-84
2022/09/17 08:09:50;;;;;;;18.80;11.02;;;14.70;99.90;;;;;;5076139;28;20024;-84
2022/09/17 08:12:18;;;;;;;16.83;11.38;;;14.80;99.90;;;;;;5074424;28;20025;-82
2022/09/17 08:14:44;;;;;;;17.77;12.77;;;14.80;99.90;;;;;;5074567;28;20032;-83
2022/09/17 08:17:09;;;;;;;19.63;13.55;;;14.80;99.90;;;;;;5074448;28;20024;-83
2022/09/17 08:19:35;;;;;;;19.27;13.13;;;14.80;99.90;;;;;;5074803;28;20020;-83
2022/09/17 08:22:01;;;;;;;24.13;14.77;;;14.80;99.90;;;;;;5075497;28;20352;-83
2022/09/17 08:24:27;;;;;;;19.90;13.43;;;14.80;99.90;;;;;;5074257;28;20378;-82
2022/09/17 08:26:53;;;;;;;21.70;13.77;;;14.80;99.90;;;;;;5074021;28;20119;-83
2022/09/17 08:29:18;;;;;;;23.58;14.27;;;14.80;99.90;;;;;;5074049;28;20070;-83
2022/09/17 08:31:44;;;;;;;23.65;15.35;;;14.80;99.90;;;;;;5075361;28;20033;-79
2022/09/17 08:34:10;;;;;;;16.40;9.80;;;14.80;99.90;;;;;;5072433;28;20029;-82
2022/09/17 08:36:36;;;;;;;14.50;10.27;;;14.70;99.90;;;;;;5073480;28;20417;-83
2022/09/17 08:39:03;;;;;;;15.23;10.43;;;14.80;99.90;;;;;;5074535;28;20111;-83
2022/09/17 08:41:46;;;;;;;19.15;11.65;;;14.80;99.90;;;;;;5075212;28;20067;-79
2022/09/17 08:44:31;;;;;;;15.55;11.32;;;14.80;99.90;;;;;;5075081;28;20056;-81
2022/09/17 08:47:22;;;;;;;18.98;11.27;;;14.80;99.90;;;;;;5073769;28;20040;-83
2022/09/17 08:49:52;;;;;;;18.30;11.93;;;14.90;99.90;;;;;;5073463;28;20032;-83
2022/09/17 08:52:49;;;;;;;21.92;12.50;;;14.90;99.90;;;;;;5075299;28;20369;-82
2022/09/17 08:55:17;;;;;;;24.00;12.35;;;15.10;99.90;;;;;;5074475;28;20032;-82
2022/09/17 08:57:51;;;;;;;17.42;11.95;;;15.00;99.90;;;;;;5073198;28;20426;-82
2022/09/17 09:00:19;;;;;;;16.98;11.77;;;15.10;99.90;;;;;;5073741;28;20029;-83
2022/09/17 09:03:07;;;;;;;16.75;9.65;;;15.10;99.90;;;;;;5074332;28;20479;-78
2022/09/17 09:05:46;;;;;;;20.17;11.20;;;15.10;99.90;;;;;;5090407;28;20032;-82
2022/09/17 09:08:36;;;;;;;13.75;9.20;;;15.10;99.90;;;;;;5074562;28;20020;-82
2022/09/17 09:11:04;;;;;;;16.88;9.95;;;15.00;99.90;;;;;;5074433;28;20048;-79
2022/09/17 09:13:39;;;;;;;12.90;9.02;;;15.10;99.90;;;;;;5074495;28;20094;-80
2022/09/17 09:16:13;;;;;;;19.48;13.98;;;15.10;99.90;;;;;;5074251;28;20048;-83
2022/09/17 09:18:41;;;;;;;18.10;12.68;;;15.00;99.90;;;;;;5088934;28;20031;-80
2022/09/17 09:21:28;;;;;;;16.00;10.13;;;15.20;99.90;;;;;;5094171;28;20020;-82
2022/09/17 09:24:08;;;;;;;15.25;11.20;;;15.20;99.90;;;;;;5094260;28;20462;-82
2022/09/17 09:26:46;;;;;;;16.08;11.38;;;15.10;99.90;;;;;;5094687;28;20489;-81
2022/09/17 09:29:41;;;;;;;16.95;10.00;;;15.20;99.90;;;;;;5094652;28;20105;-81
2022/09/17 09:32:06;;;;;;;17.45;11.82;;;15.20;99.90;;;;;;5094212;28;20043;-83
2022/09/17 09:34:34;;;;;;;18.50;13.27;;;15.30;99.90;;;;;;5094467;28;20463;-84
2022/09/17 09:37:30;;;;;;;16.80;11.13;;;15.40;99.90;;;;;;5094502;28;20019;-81
2022/09/17 09:40:15;;;;;;;20.13;11.60;;;15.40;99.90;;;;;;5071276;28;20097;-80
2022/09/17 09:42:42;;;;;;;10.00;8.15;;;15.40;99.90;;;;;;5071786;28;20490;-82
2022/09/17 09:45:16;;;;;;;13.30;8.30;;;15.40;99.90;;;;;;5054687;28;20044;-80
2022/09/17 09:48:00;;;;;;;13.38;7.80;;;15.50;99.90;;;;;;5070547;28;20031;-81
2022/09/17 09:50:47;;;;;;;15.77;9.85;;;15.50;99.90;;;;;;5071482;28;20064;-82
2022/09/17 09:53:21;;;;;;;13.50;9.40;;;15.60;99.90;;;;;;5071912;28;20039;-82
2022/09/17 09:55:52;;;;;;;12.88;9.25;;;15.60;99.90;;;;;;5054779;28;20131;-83
2022/09/17 09:58:34;;;;;;;12.63;9.35;;;15.60;99.90;;;;;;5054532;28;20064;-82
2022/09/17 10:01:01;;;;;;;13.27;10.20;;;15.70;99.90;;;;;;5071443;28;20033;-82
2022/09/17 10:03:32;;;;;;;15.68;10.82;;;15.70;99.90;;;;;;5071586;28;20036;-81
2022/09/17 10:06:02;;;;;;;17.20;11.30;;;15.70;99.90;;;;;;5071153;28;20047;-82
2022/09/17 10:08:34;;;;;;;13.23;10.32;;;15.70;99.90;;;;;;5071175;28;20036;-82
2022/09/17 10:11:22;;;;;;;14.15;10.70;;;15.70;99.90;;;;;;5054440;28;20154;-81
2022/09/17 10:13:48;;;;;;;13.40;9.63;;;15.70;99.90;;;;;;5054043;28;20039;-84
2022/09/17 10:16:23;;;;;;;14.85;10.73;;;15.70;99.90;;;;;;5076809;28;20036;-82
2022/09/17 10:19:10;;;;;;;16.10;9.57;;;15.80;99.90;;;;;;5094035;28;20455;-84
2022/09/17 10:21:41;;;;;;;12.18;9.38;;;15.90;99.90;;;;;;5093572;28;20024;-82
2022/09/17 10:24:27;;;;;;;14.27;11.20;;;15.90;99.90;;;;;;5093589;28;20024;-82
2022/09/17 10:27:06;;;;;;;15.52;10.98;;;16.00;99.90;;;;;;5093566;28;20035;-85
2022/09/17 10:29:33;;;;;;;16.63;10.90;;;15.90;99.90;;;;;;5095450;28;20063;-82
2022/09/17 10:31:59;;;;;;;17.65;11.35;;;15.90;99.90;;;;;;5095991;28;20024;-83
2022/09/17 10:34:27;;;;;;;20.90;11.45;;;15.90;99.90;;;;;;5092419;28;20102;-82
2022/09/17 10:36:55;;;;;;;14.95;9.50;;;15.90;99.90;;;;;;5091926;28;20028;-82
2022/09/17 10:39:31;;;;;;;9.88;6.82;;;16.00;99.90;;;;;;5090934;28;20092;-80
2022/09/17 10:42:10;;;;;;;11.40;7.75;;;16.10;99.90;;;;;;5094004;28;20344;-81
2022/09/17 10:44:37;;;;;;;13.18;8.07;;;16.10;99.90;;;;;;5096721;28;20036;-79
2022/09/17 10:47:05;;;;;;;14.63;9.55;;;16.00;99.90;;;;;;5095520;28;20036;-80
2022/09/17 10:49:55;;;;;;;14.90;8.10;;;15.90;99.90;;;;;;5097334;28;20066;-79
2022/09/17 10:52:41;;;;;;;10.90;8.35;;;15.90;99.90;;;;;;5094425;28;20063;-82
2022/09/17 10:55:25;;;;;;;13.18;9.25;;;15.80;99.90;;;;;;5096151;28;20035;-79
2022/09/17 10:58:06;;;;;;;12.27;8.90;;;15.80;99.90;;;;;;5095868;28;20136;-79
2022/09/17 11:00:44;;;;;;;16.83;9.77;;;15.70;99.90;;;;;;5090217;28;20039;-84
2022/09/17 11:03:18;;;;;;;15.60;10.93;;;15.70;99.90;;;;;;5096548;28;20081;-79
2022/09/17 11:05:55;;;;;;;14.30;10.25;;;15.70;99.90;;;;;;5095044;28;20445;-81
2022/09/17 11:08:37;;;;;;;15.70;11.55;;;15.70;99.90;;;;;;5095874;28;20039;-81
2022/09/17 11:11:09;;;;;;;18.75;13.65;;;15.60;99.90;;;;;;5094368;28;20028;-80
2022/09/17 11:13:50;;;;;;;17.33;12.55;;;15.60;99.90;;;;;;5097346;28;20443;-81
2022/09/17 11:16:57;;;;;;;19.10;11.43;;;15.70;99.90;;;;;;5093003;28;20523;-82
2022/09/17 11:19:35;;;;;;;16.15;11.13;;;15.70;99.90;;;;;;5076611;28;20029;-82
2022/09/17 11:22:01;;;;;;;15.93;11.23;;;15.70;99.90;;;;;;5092886;28;20406;-83
2022/09/17 11:24:47;;;;;;;14.05;10.05;;;15.70;99.90;;;;;;5095592;28;20027;-82
2022/09/17 11:27:13;;;;;;;15.93;10.18;;;15.70;99.90;;;;;;5103844;28;20386;-81
2022/09/17 11:30:03;;;;;;;19.20;11.25;;;15.70;99.90;;;;;;5116873;28;20020;-80
2022/09/17 11:32:49;;;;;;;18.38;12.20;;;15.70;99.90;;;;;;5117509;28;20023;-82
2022/09/17 11:35:20;;;;;;;16.38;11.75;;;15.70;99.90;;;;;;5109911;28;20035;-83
2022/09/17 11:37:54;;;;;;;20.63;12.47;;;15.70;99.90;;;;;;5096831;28;20473;-83
2022/09/17 11:40:22;;;;;;;20.13;13.07;;;15.70;99.90;;;;;;5094710;28;20521;-83
2022/09/17 11:42:52;;;;;;;20.55;13.23;;;15.70;99.90;;;;;;5096053;28;20025;-82
2022/09/17 11:45:23;;;;;;;21.00;13.40;;;15.70;99.90;;;;;;5096156;28;20114;-80
2022/09/17 11:47:57;;;;;;;21.83;12.23;;;15.60;99.90;;;;;;5096386;28;20490;-80
2022/09/17 11:50:36;;;;;;;19.65;13.82;;;15.60;99.90;;;;;;5096056;28;20406;-80
2022/09/17 11:53:28;;;;;;;21.40;13.38;;;15.50;99.90;;;;;;5094760;28;20035;-81
2022/09/17 11:56:16;;;;;;;26.60;16.45;;;15.50;99.90;;;;;;5086452;28;20025;-80
2022/09/17 11:59:12;;;;;;;26.02;15.63;;;15.50;99.90;;;;;;5092503;28;20036;-80
2022/09/17 12:01:56;;;;;;;17.20;13.05;;;15.40;99.90;;;;;;5087730;28;20032;-82
2022/09/17 12:04:47;;;;;;;14.55;9.18;;;15.40;99.90;;;;;;5088184;28;20036;-83
2022/09/17 12:07:50;;;;;;;13.25;9.23;;;15.30;99.90;;;;;;5104792;28;20506;-80
2022/09/17 12:10:40;;;;;;;17.33;9.07;;;15.20;99.90;;;;;;5109741;28;20028;-82
2022/09/17 12:13:08;;;;;;;12.02;8.23;;;15.00;99.90;;;;;;5090246;28;20032;-81
2022/09/17 12:15:39;;;;;;;10.50;7.93;;;14.90;99.90;;;;;;5093883;28;20024;-82
2022/09/17 12:18:44;;;;;;;14.40;8.95;;;14.80;99.90;;;;;;5087745;28;20063;-81
2022/09/17 12:21:15;;;;;;;15.75;9.65;;;14.80;99.90;;;;;;5089742;28;20028;-84
2022/09/17 12:23:54;;;;;;;14.45;11.02;;;14.80;99.90;;;;;;5117965;27;20036;-82
2022/09/17 12:26:34;;;;;;;16.70;11.65;;;14.70;99.90;;;;;;5093780;28;20036;-80
2022/09/17 12:29:29;;;;;;;18.58;13.65;;;14.70;99.90;;;;;;5092026;28;20031;-82
2022/09/17 12:32:21;;;;;;;18.52;13.00;;;14.70;99.90;;;;;;5092990;28;20356;-82
2022/09/17 12:34:56;;;;;;;23.88;12.93;;;14.70;99.90;;;;;;5096837;28;20029;-81
2022/09/17 12:37:46;;;;;;;26.80;14.32;;;14.80;99.90;;;;;;5092397;28;20471;-82
2022/09/17 12:40:18;;;;;;;21.02;11.90;;;14.80;99.90;;;;;;5092056;28;20514;-82
2022/09/17 12:42:54;;;;;;;17.48;11.15;;;14.80;99.90;;;;;;5100113;28;20031;-84
2022/09/17 12:45:51;;;;;;;13.00;9.63;;;14.80;99.90;;;;;;5096481;28;20115;-83
2022/09/17 12:48:24;;;;;;;18.98;11.50;;;14.70;99.90;;;;;;5093844;28;20096;-82
2022/09/17 12:51:19;;;;;;;16.40;11.68;;;14.70;99.90;;;;;;5093496;28;20032;-82
2022/09/17 12:54:02;;;;;;;15.40;10.48;;;14.70;99.90;;;;;;5094268;28;20035;-82
2022/09/17 12:56:40;;;;;;;18.13;11.13;;;14.70;99.90;;;;;;5093354;28;20031;-81
2022/09/17 12:59:13;;;;;;;16.73;12.25;;;14.60;99.90;;;;;;5094147;28;20024;-81
2022/09/17 13:01:51;;;;;;;18.45;11.93;;;14.70;99.90;;;;;;5094159;28;20031;-80